createdAt,value
2023-01-22T00:02:06.052Z,101923.98
2023-01-22T00:04:35.001Z,101923.98
2023-01-22T00:07:04.396Z,101922.77
2023-01-22T00:09:32.771Z,101922.30
2023-01-22T00:12:01.684Z,101922.48
2023-01-22T00:14:30.101Z,101927.70
2023-01-22T00:16:59.128Z,101929.20
2023-01-22T00:19:27.408Z,101936.58
2023-01-22T00:21:56.112Z,101938.79
2023-01-22T00:24:25.495Z,101937.41
2023-01-22T00:26:53.911Z,101939.39
2023-01-22T00:29:22.976Z,101939.88
2023-01-22T00:31:53.188Z,101941.86
2023-01-22T00:34:21.768Z,101941.02
2023-01-22T00:36:51.717Z,101944.56
2023-01-22T00:39:20.099Z,101942.52
2023-01-22T00:41:50.047Z,101943.08
2023-01-22T00:44:18.980Z,101942.44
2023-01-22T00:46:47.418Z,101941.11
2023-01-22T00:49:16.004Z,101939.28
2023-01-22T00:51:47.085Z,101938.58
2023-01-22T00:54:15.896Z,101943.66
2023-01-22T00:56:44.861Z,101940.46
2023-01-22T00:59:13.341Z,101937.07
2023-01-22T01:01:42.270Z,101947.88
2023-01-22T01:04:10.829Z,101953.08
2023-01-22T01:06:39.788Z,101954.12
2023-01-22T01:09:08.797Z,101952.00
2023-01-22T01:11:37.790Z,101955.41
2023-01-22T01:14:06.484Z,101963.88
2023-01-22T01:16:34.986Z,101959.52
2023-01-22T01:19:10.315Z,101954.57
2023-01-22T01:21:39.191Z,101954.89
2023-01-22T01:24:07.669Z,101958.72
2023-01-22T01:26:36.064Z,101956.46
2023-01-22T01:29:05.049Z,101954.08
2023-01-22T01:31:33.364Z,101960.98
2023-01-22T01:34:01.919Z,101968.13
2023-01-22T01:36:47.571Z,101976.33
2023-01-22T01:39:17.716Z,101978.39
2023-01-22T01:41:46.186Z,101979.43
2023-01-22T01:44:23.371Z,101980.88
2023-01-22T01:47:06.179Z,101979.42
2023-01-22T01:49:53.921Z,101978.95
2023-01-22T01:52:22.167Z,101976.65
2023-01-22T01:54:53.444Z,101977.04
2023-01-22T01:57:27.929Z,101981.41
2023-01-22T02:00:00.676Z,101983.44
2023-01-22T02:02:29.020Z,101984.48
2023-01-22T02:04:58.283Z,101977.08
2023-01-22T02:07:27.035Z,101974.70
2023-01-22T02:09:55.501Z,101975.11
2023-01-22T02:12:23.864Z,101978.19
2023-01-22T02:14:53.576Z,101982.86
2023-01-22T02:17:23.111Z,101984.77
2023-01-22T02:19:52.375Z,101978.41
2023-01-22T02:22:24.643Z,101976.86
2023-01-22T02:24:53.126Z,101984.50
2023-01-22T02:27:21.829Z,101994.45
2023-01-22T02:29:51.151Z,101992.38
2023-01-22T02:32:19.699Z,101990.85
2023-01-22T02:34:48.399Z,101991.69
2023-01-22T02:37:17.574Z,101996.73
2023-01-22T02:39:46.102Z,101997.95
2023-01-22T02:42:14.865Z,101993.95
2023-01-22T02:44:43.396Z,101992.34
2023-01-22T02:47:12.009Z,101990.91
2023-01-22T02:49:40.527Z,101985.70
2023-01-22T02:52:09.186Z,101987.35
2023-01-22T02:54:37.766Z,101986.17
2023-01-22T02:57:06.243Z,101983.56
2023-01-22T02:59:35.518Z,101985.30
2023-01-22T03:02:04.186Z,101987.33
2023-01-22T03:04:32.738Z,101985.25
2023-01-22T03:07:01.189Z,101981.92
2023-01-22T03:09:30.192Z,101988.73
2023-01-22T03:11:59.921Z,101986.70
2023-01-22T03:14:50.338Z,101994.23
2023-01-22T03:17:37.955Z,101996.42
2023-01-22T03:20:26.568Z,101999.63
2023-01-22T03:22:55.048Z,102004.20
2023-01-22T03:25:23.665Z,102004.99
2023-01-22T03:28:16.790Z,102002.85
2023-01-22T03:30:48.752Z,102004.35
2023-01-22T03:33:17.095Z,102004.82
2023-01-22T03:35:45.513Z,102002.52
2023-01-22T03:38:17.900Z,101999.02
2023-01-22T03:40:46.398Z,102000.88
2023-01-22T03:43:15.360Z,102008.03
2023-01-22T03:45:44.277Z,102010.36
2023-01-22T03:48:14.985Z,102006.42
2023-01-22T03:50:43.567Z,102007.21
2023-01-22T03:53:11.841Z,102009.45
2023-01-22T03:55:40.262Z,102012.46
2023-01-22T03:58:08.836Z,102013.95
2023-01-22T04:00:37.744Z,102009.84
2023-01-22T04:03:06.508Z,102014.50
2023-01-22T04:05:35.987Z,102016.96
2023-01-22T04:08:05.085Z,102015.33
2023-01-22T04:10:34.110Z,102011.65
2023-01-22T04:13:05.201Z,102012.34
2023-01-22T04:15:33.706Z,102014.65
2023-01-22T04:18:07.810Z,102014.79
2023-01-22T04:20:46.744Z,102007.44
2023-01-22T04:23:38.160Z,102011.85
2023-01-22T04:26:06.942Z,102020.21
2023-01-22T04:28:35.658Z,102023.89
2023-01-22T04:31:05.604Z,102025.31
2023-01-22T04:33:43.834Z,102024.28
2023-01-22T04:36:21.006Z,102023.42
2023-01-22T04:38:49.732Z,102024.64
2023-01-22T04:41:18.329Z,102026.73
2023-01-22T04:43:46.799Z,102027.83
2023-01-22T04:46:15.521Z,102031.30
2023-01-22T04:48:44.241Z,102038.11
2023-01-22T04:51:12.970Z,102042.32
2023-01-22T04:53:41.325Z,102049.96
2023-01-22T04:56:10.115Z,102050.48
2023-01-22T04:58:39.229Z,102052.84
2023-01-22T05:01:08.263Z,102052.96
2023-01-22T05:03:36.691Z,102050.55
2023-01-22T05:06:07.144Z,102048.05
2023-01-22T05:08:37.442Z,102051.39
2023-01-22T05:11:06.082Z,102049.98
2023-01-22T05:13:50.221Z,102053.23
2023-01-22T05:16:19.663Z,102052.30
2023-01-22T05:18:48.969Z,102054.30
2023-01-22T05:21:17.450Z,102065.50
2023-01-22T05:23:46.036Z,102060.97
2023-01-22T05:26:15.065Z,102061.34
2023-01-22T05:29:09.617Z,102068.01
2023-01-22T05:32:14.031Z,102060.41
2023-01-22T05:34:47.229Z,102072.77
2023-01-22T05:37:15.715Z,102082.84
2023-01-22T05:39:44.511Z,102082.58
2023-01-22T05:42:15.959Z,102090.18
2023-01-22T05:44:47.105Z,102094.21
2023-01-22T05:47:16.223Z,102092.84
2023-01-22T05:50:04.062Z,102092.09
2023-01-22T05:52:32.915Z,102088.29
2023-01-22T05:55:02.454Z,102089.60
2023-01-22T05:57:39.791Z,102095.13
2023-01-22T06:00:15.589Z,102101.03
2023-01-22T06:02:48.940Z,102104.69
2023-01-22T06:05:18.194Z,102112.83
2023-01-22T06:07:48.066Z,102118.14
2023-01-22T06:10:18.362Z,102120.97
2023-01-22T06:12:48.458Z,102122.23
2023-01-22T06:15:17.722Z,102121.11
2023-01-22T06:17:48.453Z,102134.25
2023-01-22T06:20:17.668Z,102129.84
2023-01-22T06:22:50.526Z,102135.70
2023-01-22T06:25:19.030Z,102144.73
2023-01-22T06:28:06.242Z,102142.48
2023-01-22T06:30:36.515Z,102143.45
2023-01-22T06:33:05.645Z,102148.30
2023-01-22T06:35:34.653Z,102143.52
2023-01-22T06:38:03.652Z,102145.02
2023-01-22T06:40:34.270Z,102149.18
2023-01-22T06:43:05.914Z,102154.23
2023-01-22T06:45:34.711Z,102154.75
2023-01-22T06:48:06.679Z,102159.54
2023-01-22T06:50:35.184Z,102162.92
2023-01-22T06:53:04.688Z,102160.22
2023-01-22T06:55:33.441Z,102165.64
2023-01-22T06:58:02.442Z,102170.16
2023-01-22T07:00:31.438Z,102171.65
2023-01-22T07:03:00.014Z,102173.60
2023-01-22T07:05:28.600Z,102178.98
2023-01-22T07:07:57.600Z,102191.45
2023-01-22T07:10:26.076Z,102200.55
2023-01-22T07:12:56.140Z,102197.45
2023-01-22T07:15:26.010Z,102197.10
2023-01-22T07:17:55.627Z,102199.00
2023-01-22T07:20:24.632Z,102199.48
2023-01-22T07:22:53.089Z,102200.93
2023-01-22T07:25:21.574Z,102199.59
2023-01-22T07:27:50.245Z,102203.50
2023-01-22T07:30:19.412Z,102204.79
2023-01-22T07:32:48.606Z,102207.69
2023-01-22T07:35:18.890Z,102213.96
2023-01-22T07:37:55.341Z,102212.32
2023-01-22T07:40:25.533Z,102207.95
2023-01-22T07:42:56.202Z,102209.23
2023-01-22T07:45:26.115Z,102213.20
2023-01-22T07:47:59.350Z,102216.73
2023-01-22T07:50:30.774Z,102220.64
2023-01-22T07:53:01.115Z,102224.56
2023-01-22T07:55:31.572Z,102222.91
2023-01-22T07:58:03.991Z,102225.59
2023-01-22T08:00:35.713Z,102231.42
2023-01-22T08:03:05.650Z,102233.30
2023-01-22T08:05:34.021Z,102237.24
2023-01-22T08:08:02.703Z,102238.12
2023-01-22T08:10:32.118Z,102240.92
2023-01-22T08:13:01.075Z,102248.45
2023-01-22T08:15:30.709Z,102248.73
2023-01-22T08:17:59.496Z,102244.56
2023-01-22T08:20:28.792Z,102241.30
2023-01-22T08:22:59.844Z,102240.36
2023-01-22T08:25:29.291Z,102243.41
2023-01-22T08:28:03.061Z,102239.09
2023-01-22T08:30:45.510Z,102247.71
2023-01-22T08:33:16.091Z,102251.33
2023-01-22T08:35:45.173Z,102253.25
2023-01-22T08:38:14.162Z,102259.95
2023-01-22T08:40:43.082Z,102256.06
2023-01-22T08:43:12.603Z,102265.61
2023-01-22T08:45:41.262Z,102263.98
2023-01-22T08:48:09.983Z,102272.10
2023-01-22T08:50:38.634Z,102274.64
2023-01-22T08:53:07.117Z,102277.57
2023-01-22T08:55:35.702Z,102281.33
2023-01-22T08:58:04.622Z,102281.77
2023-01-22T09:00:33.258Z,102275.67
2023-01-22T09:03:01.802Z,102279.09
2023-01-22T09:05:30.539Z,102280.25
2023-01-22T09:08:00.160Z,102277.60
2023-01-22T09:10:28.715Z,102275.62
2023-01-22T09:13:00.386Z,102281.92
2023-01-22T09:15:29.065Z,102283.39
2023-01-22T09:17:57.963Z,102280.09
2023-01-22T09:20:27.661Z,102286.79
2023-01-22T09:22:56.451Z,102282.86
2023-01-22T09:25:26.573Z,102280.53
2023-01-22T09:28:00.405Z,102279.63
2023-01-22T09:30:31.479Z,102281.77
2023-01-22T09:33:00.449Z,102280.61
2023-01-22T09:35:29.571Z,102284.24
2023-01-22T09:37:58.264Z,102282.75
2023-01-22T09:40:37.392Z,102285.11
2023-01-22T09:43:29.513Z,102287.44
2023-01-22T09:46:03.825Z,102285.52
2023-01-22T09:48:42.898Z,102285.60
2023-01-22T09:51:22.656Z,102287.04
2023-01-22T09:53:57.704Z,102285.19
2023-01-22T09:56:41.875Z,102281.30
2023-01-22T09:59:19.079Z,102283.40
2023-01-22T10:02:04.386Z,102280.85
2023-01-22T10:04:45.174Z,102279.48
2023-01-22T10:07:21.220Z,102274.72
2023-01-22T10:09:58.398Z,102276.04
2023-01-22T10:12:31.105Z,102272.45
2023-01-22T10:14:59.729Z,102280.52
2023-01-22T10:17:34.686Z,102280.88
2023-01-22T10:20:09.881Z,102284.15
2023-01-22T10:22:39.060Z,102280.09
2023-01-22T10:25:14.583Z,102282.92
2023-01-22T10:27:46.176Z,102285.78
2023-01-22T10:30:14.542Z,102284.11
2023-01-22T10:32:44.055Z,102278.98
2023-01-22T10:35:22.530Z,102276.79
2023-01-22T10:37:54.324Z,102274.11
2023-01-22T10:40:31.302Z,102272.10
2023-01-22T10:43:01.186Z,102271.54
2023-01-22T10:45:30.183Z,102270.61
2023-01-22T10:48:25.786Z,102267.16
2023-01-22T10:51:27.885Z,102267.72
2023-01-22T10:53:58.106Z,102266.36
2023-01-22T10:56:33.123Z,102265.12
2023-01-22T10:59:28.871Z,102267.80
2023-01-22T11:02:20.966Z,102262.15
2023-01-22T11:04:50.300Z,102267.10
2023-01-22T11:07:32.699Z,102268.40
2023-01-22T11:10:21.695Z,102268.38
2023-01-22T11:13:19.199Z,102266.33
2023-01-22T11:15:55.218Z,102265.69
2023-01-22T11:18:42.081Z,102264.70
2023-01-22T11:21:20.941Z,102262.58
2023-01-22T11:24:03.914Z,102266.27
2023-01-22T11:26:54.423Z,102264.85
2023-01-22T11:29:44.305Z,102272.21
2023-01-22T11:32:50.151Z,102276.80
2023-01-22T11:35:27.380Z,102277.27
2023-01-22T11:38:22.957Z,102276.82
2023-01-22T11:40:54.535Z,102278.43
2023-01-22T11:43:56.060Z,102274.22
2023-01-22T11:46:40.523Z,102282.08
2023-01-22T11:49:32.529Z,102280.27
2023-01-22T11:52:35.807Z,102279.45
2023-01-22T11:55:22.460Z,102280.63
2023-01-22T11:58:01.389Z,102281.84
2023-01-22T12:00:43.074Z,102278.38
2023-01-22T12:03:17.398Z,102280.14
2023-01-22T12:05:58.462Z,102280.06
2023-01-22T12:08:51.629Z,102278.46
2023-01-22T12:11:43.255Z,102279.23
2023-01-22T12:14:30.019Z,102279.80
2023-01-22T12:16:59.056Z,102279.30
2023-01-22T12:19:43.717Z,102281.66
2023-01-22T12:22:31.271Z,102285.73
2023-01-22T12:25:41.494Z,102288.32
2023-01-22T12:28:14.124Z,102291.89
2023-01-22T12:31:10.628Z,102294.48
2023-01-22T12:33:43.666Z,102298.82
2023-01-22T12:36:19.051Z,102300.73
2023-01-22T12:38:55.636Z,102307.36
2023-01-22T12:41:45.196Z,102317.64
2023-01-22T12:44:27.673Z,102319.89
2023-01-22T12:47:10.120Z,102322.89
2023-01-22T12:49:49.233Z,102326.08
2023-01-22T12:52:34.167Z,102335.45
2023-01-22T12:55:23.301Z,102334.92
2023-01-22T12:57:52.666Z,102339.55
2023-01-22T13:00:35.376Z,102338.36
2023-01-22T13:03:30.957Z,102341.97
2023-01-22T13:06:03.495Z,102342.31
2023-01-22T13:08:44.319Z,102344.25
2023-01-22T13:11:27.849Z,102347.98
2023-01-22T13:14:20.781Z,102348.55
2023-01-22T13:16:56.675Z,102350.21
2023-01-22T13:19:32.614Z,102350.75
2023-01-22T13:22:04.888Z,102353.89
2023-01-22T13:24:35.784Z,102354.46
2023-01-22T13:27:04.751Z,102358.09
2023-01-22T13:29:40.472Z,102358.91
2023-01-22T13:32:19.292Z,102361.83
2023-01-22T13:34:48.611Z,102361.42
2023-01-22T13:37:26.694Z,102366.21
2023-01-22T13:39:55.520Z,102366.52
2023-01-22T13:42:30.323Z,102372.35
2023-01-22T13:45:03.347Z,102372.94
2023-01-22T13:47:35.566Z,102375.48
2023-01-22T13:50:05.848Z,102378.69
2023-01-22T13:52:36.255Z,102383.02
2023-01-22T13:55:17.435Z,102387.91
2023-01-22T13:57:49.082Z,102400.04
2023-01-22T14:00:29.745Z,102400.58
2023-01-22T14:03:01.391Z,102399.10
2023-01-22T14:05:36.664Z,102399.70
2023-01-22T14:08:08.562Z,102397.55
2023-01-22T14:10:39.098Z,102401.23
2023-01-22T14:13:19.804Z,102407.29
2023-01-22T14:16:00.364Z,102407.09
2023-01-22T14:18:30.574Z,102406.05
2023-01-22T14:20:59.516Z,102408.81
2023-01-22T14:23:30.481Z,102412.52
2023-01-22T14:26:04.170Z,102414.90
2023-01-22T14:28:35.753Z,102417.20
2023-01-22T14:31:08.544Z,102422.15
2023-01-22T14:33:37.556Z,102425.00
2023-01-22T14:36:07.413Z,102427.70
2023-01-22T14:38:36.353Z,102431.73
2023-01-22T14:41:07.128Z,102431.96
2023-01-22T14:43:37.425Z,102436.07
2023-01-22T14:46:11.364Z,102440.33
2023-01-22T14:48:43.513Z,102442.34
2023-01-22T14:51:14.945Z,102446.23
2023-01-22T14:53:45.575Z,102448.28
2023-01-22T14:56:15.709Z,102453.64
2023-01-22T14:58:47.940Z,102452.11
2023-01-22T15:01:21.488Z,102452.55
2023-01-22T15:03:50.872Z,102453.78
2023-01-22T15:06:25.495Z,102457.06
2023-01-22T15:08:57.381Z,102460.52
2023-01-22T15:11:27.143Z,102463.85
2023-01-22T15:13:58.560Z,102469.60
2023-01-22T15:16:28.718Z,102476.38
2023-01-22T15:19:00.854Z,102474.91
2023-01-22T15:21:32.043Z,102475.77
2023-01-22T15:24:03.985Z,102479.27
2023-01-22T15:26:37.897Z,102478.30
2023-01-22T15:29:09.067Z,102481.44
2023-01-22T15:31:38.346Z,102488.86
2023-01-22T15:34:10.747Z,102493.42
2023-01-22T15:36:41.883Z,102496.99
2023-01-22T15:39:10.992Z,102503.16
2023-01-22T15:41:40.991Z,102505.37
2023-01-22T15:44:13.315Z,102505.42
2023-01-22T15:46:43.480Z,102509.45
2023-01-22T15:49:13.260Z,102515.25
2023-01-22T15:51:42.681Z,102513.35
2023-01-22T15:54:16.534Z,102514.61
2023-01-22T15:56:47.512Z,102519.27
2023-01-22T15:59:16.122Z,102521.60
2023-01-22T16:01:50.225Z,102518.89
2023-01-22T16:04:19.942Z,102522.09
2023-01-22T16:06:49.151Z,102524.92
2023-01-22T16:09:17.838Z,102525.89
2023-01-22T16:11:47.336Z,102526.44
2023-01-22T16:14:17.336Z,102528.73
2023-01-22T16:16:46.443Z,102530.42
2023-01-22T16:19:21.647Z,102531.98
2023-01-22T16:21:56.137Z,102532.89
2023-01-22T16:24:28.002Z,102536.60
2023-01-22T16:27:01.916Z,102541.58
2023-01-22T16:29:31.472Z,102545.32
2023-01-22T16:32:01.976Z,102544.05
2023-01-22T16:34:31.553Z,102548.05
2023-01-22T16:37:00.554Z,102549.09
2023-01-22T16:39:34.823Z,102553.16
2023-01-22T16:42:04.223Z,102554.17
2023-01-22T16:44:33.939Z,102562.58
2023-01-22T16:47:04.327Z,102564.95
2023-01-22T16:49:34.650Z,102560.90
2023-01-22T16:52:22.063Z,102567.37
2023-01-22T16:54:52.613Z,102568.96
2023-01-22T16:57:28.159Z,102571.34
2023-01-22T17:00:00.440Z,102572.36
2023-01-22T17:02:31.376Z,102572.96
2023-01-22T17:05:03.976Z,102578.91
2023-01-22T17:07:34.452Z,102578.84
2023-01-22T17:10:04.125Z,102581.80
2023-01-22T17:12:35.982Z,102585.71
2023-01-22T17:15:06.166Z,102586.48
2023-01-22T17:21:21.277Z,102591.98
2023-01-22T17:23:50.444Z,102596.80
2023-01-22T17:26:20.833Z,102606.04
2023-01-22T17:28:51.385Z,102611.61
2023-01-22T17:31:25.526Z,102616.45
2023-01-22T17:33:55.848Z,102622.13
2023-01-22T17:36:28.706Z,102623.48
2023-01-22T17:38:58.416Z,102630.49
2023-01-22T17:41:27.966Z,102625.84
2023-01-22T17:43:59.034Z,102624.63
2023-01-22T17:46:32.590Z,102629.41
2023-01-22T17:49:04.920Z,102626.69
2023-01-22T17:51:36.051Z,102630.73
2023-01-22T17:54:07.243Z,102632.82
2023-01-22T17:56:40.514Z,102635.70
2023-01-22T17:59:13.018Z,102642.30
2023-01-22T18:01:41.908Z,102642.11
2023-01-22T18:04:13.087Z,102648.51
2023-01-22T18:06:44.675Z,102652.77
2023-01-22T18:09:18.588Z,102648.79
2023-01-22T18:11:49.494Z,102649.05
2023-01-22T18:14:26.576Z,102653.92
2023-01-22T18:16:56.265Z,102659.18
2023-01-22T18:19:26.342Z,102660.14
2023-01-22T18:21:55.162Z,102662.11
2023-01-22T18:24:24.668Z,102661.05
2023-01-22T18:26:55.436Z,102661.02
2023-01-22T18:29:25.681Z,102664.02
2023-01-22T18:32:03.756Z,102668.64
2023-01-22T18:34:37.433Z,102669.18
2023-01-22T18:37:06.351Z,102672.84
2023-01-22T18:39:35.833Z,102672.38
2023-01-22T18:42:05.029Z,102673.39
2023-01-22T18:44:34.742Z,102674.83
2023-01-22T18:47:11.898Z,102675.37
2023-01-22T18:49:49.482Z,102676.52
2023-01-22T18:52:19.373Z,102683.59
2023-01-22T18:54:49.593Z,102687.55
2023-01-22T18:57:19.362Z,102686.06
2023-01-22T18:59:48.177Z,102683.30
2023-01-22T19:02:21.869Z,102683.86
2023-01-22T19:04:52.994Z,102681.77
2023-01-22T19:07:21.686Z,102685.31
2023-01-22T19:09:52.161Z,102692.66
2023-01-22T19:12:21.870Z,102697.35
2023-01-22T19:14:51.368Z,102697.14
2023-01-22T19:17:21.703Z,102696.48
2023-01-22T19:19:50.635Z,102695.44
2023-01-22T19:22:19.430Z,102697.73
2023-01-22T19:24:49.544Z,102695.52
2023-01-22T19:27:18.450Z,102701.77
2023-01-22T19:29:48.457Z,102701.30
2023-01-22T19:32:22.815Z,102703.69
2023-01-22T19:34:51.871Z,102708.88
2023-01-22T19:37:20.803Z,102709.41
2023-01-22T19:39:50.977Z,102711.51
2023-01-22T19:42:22.088Z,102712.38
2023-01-22T19:44:53.292Z,102711.38
2023-01-22T19:47:24.668Z,102711.61
2023-01-22T19:49:54.508Z,102715.70
2023-01-22T19:52:23.949Z,102716.25
2023-01-22T19:54:52.639Z,102717.30
2023-01-22T19:57:21.768Z,102713.02
2023-01-22T19:59:54.508Z,102712.17
2023-01-22T20:02:23.972Z,102712.28
2023-01-22T20:04:53.505Z,102716.83
2023-01-22T20:07:22.952Z,102717.91
2023-01-22T20:09:51.840Z,102718.52
2023-01-22T20:12:21.657Z,102719.16
2023-01-22T20:14:52.472Z,102719.05
2023-01-22T20:17:21.796Z,102723.48
2023-01-22T20:19:50.744Z,102725.40
2023-01-22T20:22:19.835Z,102730.00
2023-01-22T20:24:49.465Z,102729.55
2023-01-22T20:27:18.039Z,102735.08
2023-01-22T20:29:46.715Z,102746.50
2023-01-22T20:32:16.124Z,102747.44
2023-01-22T20:34:49.204Z,102743.42
2023-01-22T20:37:18.731Z,102742.76
2023-01-22T20:39:47.797Z,102744.52
2023-01-22T20:42:17.052Z,102743.84
2023-01-22T20:44:46.187Z,102752.45
2023-01-22T20:47:15.805Z,102758.02
2023-01-22T20:49:46.277Z,102762.52
2023-01-22T20:52:18.195Z,102769.56
2023-01-22T20:55:01.074Z,102769.55
2023-01-22T20:57:31.653Z,102771.23
2023-01-22T21:00:01.665Z,102773.41
2023-01-22T21:02:31.105Z,102777.63
2023-01-22T21:05:01.984Z,102771.92
2023-01-22T21:07:32.830Z,102773.11
2023-01-22T21:10:03.579Z,102780.29
2023-01-22T21:12:33.418Z,102778.57
2023-01-22T21:15:03.851Z,102784.75
2023-01-22T21:17:32.899Z,102790.70
2023-01-22T21:20:03.423Z,102793.11
2023-01-22T21:22:33.456Z,102794.34
2023-01-22T21:25:03.225Z,102796.01
2023-01-22T21:27:33.211Z,102799.60
2023-01-22T21:30:03.327Z,102793.70
2023-01-22T21:32:33.462Z,102796.81
2023-01-22T21:35:04.848Z,102795.94
2023-01-22T21:37:34.130Z,102798.08
2023-01-22T21:40:02.965Z,102798.20
2023-01-22T21:42:50.343Z,102792.88
2023-01-22T21:45:38.329Z,102790.16
2023-01-22T21:48:07.098Z,102791.14
2023-01-22T21:50:48.314Z,102794.85
2023-01-22T21:53:18.296Z,102793.50
2023-01-22T21:55:54.462Z,102793.58
2023-01-22T21:58:23.473Z,102793.43
2023-01-22T22:00:55.158Z,102790.66
2023-01-22T22:03:30.748Z,102788.27
2023-01-22T22:06:02.714Z,102793.48
2023-01-22T22:08:32.563Z,102795.36
2023-01-22T22:11:03.812Z,102799.77
2023-01-22T22:13:35.560Z,102800.84
2023-01-22T22:16:09.471Z,102797.52
2023-01-22T22:18:38.915Z,102797.54
2023-01-22T22:21:10.140Z,102798.23
2023-01-22T22:23:42.425Z,102800.70
2023-01-22T22:26:13.690Z,102795.40
2023-01-22T22:28:43.109Z,102798.20
2023-01-22T22:31:15.283Z,102796.09
2023-01-22T22:33:48.815Z,102799.95
2023-01-22T22:36:20.707Z,102799.13
2023-01-22T22:38:50.242Z,102800.79
2023-01-22T22:41:27.728Z,102801.09
2023-01-22T22:43:59.368Z,102809.37
2023-01-22T22:46:36.210Z,102811.39
2023-01-22T22:49:06.070Z,102818.52
2023-01-22T22:51:38.262Z,102820.72
2023-01-22T22:54:12.056Z,102817.86
2023-01-22T22:56:40.646Z,102813.67
2023-01-22T22:59:10.588Z,102819.35
2023-01-22T23:01:39.851Z,102820.40
2023-01-22T23:04:09.121Z,102816.33
2023-01-22T23:06:46.805Z,102817.90
2023-01-22T23:09:19.877Z,102815.33
2023-01-22T23:11:56.402Z,102820.09
2023-01-22T23:14:25.323Z,102814.40
2023-01-22T23:16:54.345Z,102812.76
2023-01-22T23:19:26.793Z,102812.57
2023-01-22T23:21:59.636Z,102815.08
2023-01-22T23:24:29.246Z,102816.98
2023-01-22T23:26:58.950Z,102818.83
2023-01-22T23:29:27.749Z,102820.04
2023-01-22T23:31:57.940Z,102817.61
2023-01-22T23:34:26.649Z,102814.27
2023-01-22T23:36:56.689Z,102815.67
2023-01-22T23:39:25.512Z,102817.86
2023-01-22T23:41:57.220Z,102819.59
2023-01-22T23:44:26.108Z,102823.38
2023-01-22T23:46:54.593Z,102822.88
2023-01-22T23:49:23.392Z,102825.11
2023-01-22T23:51:51.857Z,102829.60
2023-01-22T23:54:20.340Z,102828.95
2023-01-22T23:56:49.012Z,102831.06
2023-01-22T23:59:17.673Z,102832.34
